Time;durP1;ratioP1;P1;durP2;ratioP2;P2;SDS_P1;SDS_P2;PMS_P1;PMS_P2;Temp;Humidity;BMP_temperature;BMP_pressure;BME280_temperature;BME280_humidity;BME280_pressure;Samples;Min_cycle;Max_cycle;Signal;HPM_P1;HPM_P2
2022/09/22 07:04:11;;;;;;;12.52;4.50;;;;;;;11.05;61.77;97165.53;2084394;28;20580;-61
2022/09/22 07:05:16;;;;;;;10.32;4.40;;;;;;;11.11;60.87;97167.91;2077671;28;20311;-61
2022/09/22 07:21:22;;;;;;;9.10;4.57;;;;;;;13.14;56.13;97161.97;2084841;28;20573;-61
2022/09/22 07:22:27;;;;;;;11.93;3.65;;;;;;;13.21;55.43;97137.16;2078808;28;20301;-62
2022/09/22 07:23:29;;;;;;;8.55;4.22;;;;;;;13.19;55.57;97149.50;2079782;28;20295;-62
2022/09/22 07:24:30;;;;;;;8.15;5.25;;;;;;;13.30;55.45;97160.31;2082382;28;20716;-63
2022/09/22 07:34:43;;;;;;;15.30;4.78;;;;;;;14.81;52.68;97159.81;2084254;28;21168;-63
2022/09/22 07:35:45;;;;;;;8.73;4.38;;;;;;;15.39;51.39;97144.44;2080863;28;20291;-63
2022/09/22 07:36:48;;;;;;;11.85;4.88;;;;;;;15.51;50.62;97154.25;2081514;28;20207;-65
2022/09/22 07:37:55;;;;;;;8.63;4.90;;;;;;;15.89;49.98;97152.19;2084686;28;20588;-66
2022/09/22 07:39:02;;;;;;;6.97;4.00;;;;;;;15.10;51.52;97162.66;2080168;28;20196;-66
2022/09/22 07:49:21;;;;;;;6.80;2.95;;;;;;;15.97;50.16;97147.31;2095695;27;20548;-63
2022/09/22 07:50:22;;;;;;;7.03;3.10;;;;;;;16.49;48.35;97151.25;2093695;28;20261;-64
2022/09/22 07:51:25;;;;;;;6.97;4.25;;;;;;;16.97;47.67;97156.28;2105814;28;20769;-63
2022/09/22 07:52:29;;;;;;;11.07;3.00;;;;;;;16.50;48.80;97147.69;2089594;28;20391;-63
2022/09/22 07:53:34;;;;;;;4.18;2.60;;;;;;;16.15;49.86;97153.25;2087820;28;20227;-63
2022/09/22 07:54:38;;;;;;;8.45;2.70;;;;;;;16.63;48.27;97153.06;2080667;28;20224;-63
2022/09/22 07:55:40;;;;;;;6.30;3.22;;;;;;;16.30;49.00;97144.47;2105083;28;20241;-63
2022/09/22 07:56:43;;;;;;;4.05;2.25;;;;;;;15.79;51.16;97139.50;2103653;28;20230;-64
2022/09/22 07:57:52;;;;;;;5.78;2.85;;;;;;;14.93;52.29;97146.94;2090046;28;20250;-63
2022/09/22 07:58:56;;;;;;;3.90;2.17;;;;;;;16.52;49.84;97151.09;2088776;28;20212;-63
2022/09/22 07:59:58;;;;;;;6.65;2.08;;;;;;;17.17;48.10;97152.38;2086446;28;20230;-63
2022/09/22 08:01:09;;;;;;;6.55;2.40;;;;;;;17.36;47.58;97151.22;2107609;28;20726;-63
2022/09/22 08:02:11;;;;;;;22.27;3.40;;;;;;;17.28;47.42;97152.56;2094842;28;20290;-64
2022/09/22 08:03:12;;;;;;;4.25;2.03;;;;;;;17.28;47.96;97149.91;2092442;28;20340;-63
2022/09/22 08:04:17;;;;;;;7.18;2.15;;;;;;;17.19;47.33;97152.28;2093032;28;20250;-64
2022/09/22 08:05:19;;;;;;;4.78;2.42;;;;;;;16.66;49.16;97155.50;2082571;28;20311;-64
2022/09/22 08:06:20;;;;;;;3.83;1.88;;;;;;;16.71;49.49;97147.31;2095054;28;20234;-63
2022/09/22 08:07:24;;;;;;;10.27;2.10;;;;;;;18.22;45.87;97145.59;2092728;28;20688;-64
2022/09/22 08:08:26;;;;;;;12.93;2.38;;;;;;;16.68;48.65;97129.06;2088078;28;20244;-63
2022/09/22 08:09:28;;;;;;;5.07;1.88;;;;;;;16.02;49.27;97147.03;2089461;28;20252;-64
2022/09/22 08:10:32;;;;;;;7.28;2.72;;;;;;;14.72;52.58;97128.78;2092269;28;20264;-63
2022/09/22 08:11:34;;;;;;;6.60;2.30;;;;;;;14.98;52.52;97148.41;2105949;28;20226;-64
2022/09/22 08:12:36;;;;;;;9.60;2.40;;;;;;;15.00;52.04;97137.81;2089220;28;20287;-65
2022/09/22 08:13:42;;;;;;;10.07;2.33;;;;;;;15.56;51.07;97142.63;2083343;28;20296;-64
2022/09/22 08:14:46;;;;;;;5.55;2.30;;;;;;;16.28;49.35;97141.06;2079047;28;20232;-63
2022/09/22 08:15:51;;;;;;;9.00;2.08;;;;;;;15.89;49.72;97147.75;2105290;28;20234;-64
2022/09/22 08:16:53;;;;;;;10.13;2.15;;;;;;;15.68;50.57;97131.41;2100223;28;20278;-63
2022/09/22 08:17:58;;;;;;;5.43;2.17;;;;;;;16.37;49.78;97141.47;2090886;28;20765;-64
2022/09/22 08:19:09;;;;;;;7.60;2.10;;;;;;;16.68;47.94;97139.59;2090294;28;20345;-64
2022/09/22 08:20:12;;;;;;;3.85;1.75;;;;;;;15.39;50.43;97133.91;2083476;28;20227;-64
2022/09/22 08:21:17;;;;;;;3.45;1.75;;;;;;;15.29;51.06;97140.63;2096089;28;20286;-64
2022/09/22 08:22:19;;;;;;;4.85;2.20;;;;;;;15.79;50.15;97134.22;2092648;28;20286;-64
2022/09/22 08:23:20;;;;;;;8.00;2.20;;;;;;;16.30;48.81;97135.69;2089972;28;20252;-64
2022/09/22 08:24:22;;;;;;;9.57;1.80;;;;;;;15.44;50.84;97125.72;2087931;28;20238;-64
2022/09/22 08:25:24;;;;;;;2.90;1.60;;;;;;;15.12;50.62;97133.63;2092253;28;20306;-64
2022/09/22 08:26:25;;;;;;;3.80;2.03;;;;;;;15.13;51.16;97138.81;2103852;28;20199;-63
2022/09/22 08:27:28;;;;;;;9.13;2.08;;;;;;;15.67;49.83;97125.28;2089769;28;20553;-63
2022/09/22 08:28:30;;;;;;;7.30;2.40;;;;;;;15.78;50.41;97127.28;2088263;28;20199;-63
2022/09/22 08:29:32;;;;;;;3.60;2.08;;;;;;;16.79;48.80;97135.34;2090547;28;20299;-63
2022/09/22 08:30:34;;;;;;;5.82;2.20;;;;;;;17.04;47.90;97138.25;2070763;28;20875;-64
2022/09/22 08:31:39;;;;;;;3.28;1.95;;;;;;;16.69;48.23;97134.22;2074238;28;20316;-64
2022/09/22 08:32:41;;;;;;;4.18;2.42;;;;;;;16.18;49.34;97120.66;2081123;28;20201;-64
2022/09/22 08:33:43;;;;;;;4.45;2.30;;;;;;;17.11;47.59;97137.78;2078852;28;20205;-64
2022/09/22 08:34:44;;;;;;;3.80;1.95;;;;;;;16.32;47.56;97104.84;2063024;28;20265;-64
2022/09/22 08:35:53;;;;;;;4.28;1.98;;;;;;;15.89;49.06;97115.31;2088189;28;20636;-64
2022/09/22 08:36:54;;;;;;;2.65;1.63;;;;;;;15.08;51.00;97135.59;2092352;28;20227;-63
2022/09/22 08:37:56;;;;;;;4.78;2.03;;;;;;;14.98;51.97;97142.28;2088745;28;21107;-63
2022/09/22 08:39:02;;;;;;;3.30;1.88;;;;;;;15.40;50.65;97138.22;2089413;28;20272;-63
2022/09/22 08:40:05;;;;;;;5.10;2.10;;;;;;;15.57;49.85;97141.69;2084304;28;20223;-64
2022/09/22 08:41:28;;;;;;;3.92;2.00;;;;;;;15.44;50.72;97139.75;2097880;28;20242;-63
2022/09/22 08:42:32;;;;;;;5.38;2.20;;;;;;;14.62;50.92;97094.22;2090679;28;20283;-64
2022/09/22 08:43:34;;;;;;;4.95;2.03;;;;;;;14.52;52.38;97117.53;2089809;28;20599;-63
2022/09/22 08:45:03;;;;;;;4.57;2.05;;;;;;;14.94;51.73;97146.03;2080446;28;20270;-63
2022/09/22 08:46:04;;;;;;;4.55;1.60;;;;;;;15.18;50.33;97142.06;2097341;28;20242;-64
2022/09/22 08:47:15;;;;;;;6.28;1.90;;;;;;;15.52;50.00;97149.84;2093908;28;20227;-64
2022/09/22 08:52:53;;;;;;;7.47;2.00;;;;;;;16.06;50.24;97138.88;2090293;28;20292;-64
2022/09/22 08:53:55;;;;;;;6.55;1.92;;;;;;;16.15;50.02;97140.97;2092417;28;20235;-64
2022/09/22 08:55:09;;;;;;;3.70;2.00;;;;;;;14.93;52.28;97132.03;2080013;28;20224;-63
2022/09/22 08:56:23;;;;;;;5.85;1.90;;;;;;;15.18;51.96;97131.53;2095679;28;20325;-63
2022/09/22 08:57:35;;;;;;;3.03;1.95;;;;;;;15.27;51.97;97143.31;2090590;28;20220;-64
2022/09/22 08:58:55;;;;;;;3.47;1.73;;;;;;;14.34;52.58;97127.22;2090259;28;20277;-64
2022/09/22 09:00:17;;;;;;;4.45;1.65;;;;;;;15.12;52.13;97126.63;2082003;28;20640;-64
2022/09/22 09:01:44;;;;;;;5.93;2.17;;;;;;;15.25;53.07;97139.94;2092645;28;20203;-63
2022/09/22 09:03:16;;;;;;;4.97;2.08;;;;;;;14.65;53.92;97137.91;2083486;28;20266;-63
2022/09/22 09:04:42;;;;;;;3.78;1.58;;;;;;;15.01;53.53;97140.34;2086957;28;20294;-63
2022/09/22 09:06:28;;;;;;;5.38;2.30;;;;;;;14.87;54.58;97145.53;2084428;28;20215;-64
2022/09/22 09:07:48;;;;;;;3.38;1.83;;;;;;;15.17;52.58;97128.97;2082172;28;20201;-64
2022/09/22 09:09:08;;;;;;;8.00;2.25;;;;;;;15.61;52.82;97133.50;2083431;28;20250;-63
2022/09/22 09:10:40;;;;;;;3.20;1.67;;;;;;;16.03;51.18;97131.13;2077537;28;20338;-63
2022/09/22 09:30:08;;;;;;;2.50;1.73;;;;;;;17.67;45.94;97136.03;2075369;28;20224;-64
2022/09/22 09:31:27;;;;;;;4.35;1.33;;;;;;;17.81;45.23;97135.13;2089293;28;20241;-64
2022/09/22 09:32:39;;;;;;;6.95;1.48;;;;;;;17.27;46.04;97124.47;2082157;28;20212;-63
2022/09/22 09:33:57;;;;;;;5.35;1.50;;;;;;;18.86;43.83;97094.44;2082015;28;20316;-63
2022/09/22 09:35:01;;;;;;;3.03;1.20;;;;;;;20.29;40.37;97118.50;2075955;28;20319;-63
2022/09/22 09:47:50;;;;;;;1.80;1.00;;;;;;;19.24;41.44;97127.09;2084523;28;20172;-64
2022/09/22 09:49:15;;;;;;;7.25;1.17;;;;;;;20.90;39.07;97120.03;2081986;28;20337;-63
2022/09/22 09:50:18;;;;;;;4.97;1.45;;;;;;;21.11;38.89;97130.75;2078280;28;20400;-64
2022/09/22 09:51:19;;;;;;;3.00;1.20;;;;;;;19.59;40.40;97123.66;2090321;28;20200;-64
2022/09/22 10:08:46;;;;;;;6.80;1.23;;;;;;;21.40;37.21;97124.94;2071304;27;1267127;-64
2022/09/22 10:09:52;;;;;;;7.78;1.90;;;;;;;20.95;37.79;97116.06;2095697;28;20278;-64
2022/09/22 10:10:58;;;;;;;12.85;1.48;;;;;;;21.84;37.53;97131.94;2087541;28;20243;-64
2022/09/22 10:12:03;;;;;;;10.52;1.48;;;;;;;22.78;36.07;97125.00;2087155;28;20200;-63
2022/09/22 10:13:04;;;;;;;10.57;1.98;;;;;;;23.34;34.43;97122.78;2088127;28;20209;-64
2022/09/22 10:14:18;;;;;;;16.73;1.60;;;;;;;21.44;37.13;97129.84;2087726;28;20196;-63
2022/09/22 10:15:25;;;;;;;8.52;1.13;;;;;;;21.19;36.74;97121.22;2089279;28;20750;-63
2022/09/22 10:16:29;;;;;;;1.98;1.05;;;;;;;18.77;38.83;97130.34;2100823;28;20604;-64
2022/09/22 10:17:41;;;;;;;3.65;1.02;;;;;;;19.04;39.49;97126.72;2087860;28;20753;-63
2022/09/22 10:18:42;;;;;;;1.88;0.80;;;;;;;21.11;37.31;97128.09;2088803;28;20231;-66
2022/09/22 10:19:44;;;;;;;2.60;1.00;;;;;;;22.50;34.83;97122.06;2087537;28;20211;-66
2022/09/22 10:21:14;;;;;;;1.65;0.85;;;;;;;22.88;34.59;97115.22;2092584;28;20250;-65
2022/09/22 10:32:01;;;;;;;5.03;1.00;;;;;;;19.93;39.07;97102.63;2090053;28;20554;-64
2022/09/22 10:33:14;;;;;;;3.28;1.00;;;;;;;22.15;36.39;97086.78;2089936;28;20192;-63
2022/09/22 10:34:30;;;;;;;6.03;1.20;;;;;;;20.20;38.21;97104.16;2087530;28;20280;-64
2022/09/22 10:35:35;;;;;;;9.57;1.02;;;;;;;19.36;39.24;97083.00;2077483;28;20221;-63
2022/09/22 10:36:44;;;;;;;5.97;1.10;;;;;;;19.66;38.41;97110.84;2086649;28;20207;-63
2022/09/22 10:37:47;;;;;;;1.73;0.70;;;;;;;19.23;39.15;97109.53;2078450;28;20256;-64
2022/09/22 10:38:48;;;;;;;5.45;1.52;;;;;;;19.42;38.37;97104.56;2084113;28;20235;-64
2022/09/22 10:39:59;;;;;;;9.20;1.40;;;;;;;19.70;39.44;97097.22;2081422;28;20694;-63
2022/09/22 10:41:07;;;;;;;10.13;1.00;;;;;;;19.63;38.48;97092.50;2080919;28;20211;-64
2022/09/22 10:42:33;;;;;;;3.78;1.13;;;;;;;21.19;37.80;97101.78;2079773;28;20243;-64
2022/09/22 10:44:09;;;;;;;17.77;1.33;;;;;;;22.32;36.06;97097.81;2080510;28;20320;-63
2022/09/22 10:57:39;;;;;;;3.75;1.10;;;;;;;24.35;32.67;97096.72;2082841;28;20588;-63
2022/09/22 10:58:43;;;;;;;3.60;0.80;;;;;;;25.48;31.41;97095.84;2091469;28;20295;-63
2022/09/22 11:00:09;;;;;;;5.47;0.90;;;;;;;25.25;31.35;97098.91;2078233;28;20250;-63
2022/09/22 11:01:26;;;;;;;9.40;1.20;;;;;;;24.92;31.76;97096.72;2079843;28;20823;-63
2022/09/22 11:03:03;;;;;;;3.05;1.00;;;;;;;24.83;31.69;97096.75;2076829;28;20200;-64
2022/09/22 11:04:26;;;;;;;13.48;1.30;;;;;;;23.77;31.52;97097.63;2070917;28;20200;-64
2022/09/22 11:33:13;;;;;;;2.47;0.95;;;;;;;21.48;37.64;97067.56;2079536;28;20177;-65
2022/09/22 11:34:34;;;;;;;11.23;0.95;;;;;;;23.50;34.09;97067.16;2080046;28;20706;-65
2022/09/22 11:36:03;;;;;;;1.65;1.08;;;;;;;24.51;32.61;97069.44;2077328;28;20316;-66
2022/09/22 11:37:26;;;;;;;4.45;1.08;;;;;;;24.72;32.43;97065.72;2080836;28;20414;-66
2022/09/22 11:57:20;;;;;;;7.63;1.50;;;;;;;20.06;38.23;97047.75;2056946;28;1225200;-63
2022/09/22 11:58:26;;;;;;;2.50;0.90;;;;;;;19.84;38.58;97053.00;2111984;28;20221;-64
2022/09/22 11:59:49;;;;;;;3.00;1.02;;;;;;;19.86;38.57;97051.09;2112289;28;20717;-64
2022/09/22 12:01:07;;;;;;;4.07;1.15;;;;;;;17.77;41.92;97064.00;2111605;28;20271;-65
2022/09/22 12:16:40;;;;;;;6.78;1.55;;;;;;;20.10;38.53;97040.41;2104577;27;20599;-63
2022/09/22 12:17:58;;;;;;;14.15;1.20;;;;;;;20.69;37.93;97025.22;2104104;28;20195;-63
2022/09/22 12:19:41;;;;;;;8.23;1.35;;;;;;;20.02;38.94;97038.34;2104045;28;20241;-64
2022/09/22 12:20:59;;;;;;;2.53;1.02;;;;;;;18.33;41.67;97035.63;2086016;28;20291;-63
2022/09/22 12:37:28;;;;;;;3.08;1.20;;;;;;;21.67;36.10;97021.72;2083314;28;20556;-63
2022/09/22 12:38:31;;;;;;;5.18;1.10;;;;;;;23.00;34.16;97017.44;2080803;28;20243;-63
2022/09/22 12:39:45;;;;;;;2.70;1.10;;;;;;;22.20;34.23;97022.59;2081436;28;20200;-63
2022/09/22 12:40:50;;;;;;;6.93;0.85;;;;;;;23.27;33.77;97002.63;2072777;28;20224;-63
2022/09/22 12:42:04;;;;;;;22.73;1.35;;;;;;;20.99;37.15;97024.59;2077280;28;20274;-63
2022/09/22 12:43:14;;;;;;;7.97;1.17;;;;;;;21.61;36.29;97029.34;2076164;28;20668;-63
2022/09/22 12:44:29;;;;;;;4.93;1.15;;;;;;;21.46;35.13;97026.16;2074070;28;20747;-64
2022/09/22 12:45:36;;;;;;;1.85;0.70;;;;;;;21.28;35.08;97017.84;2070926;28;20246;-63
2022/09/22 12:46:41;;;;;;;5.10;0.95;;;;;;;21.13;34.57;97017.34;2082733;28;20735;-63
2022/09/22 12:47:48;;;;;;;11.15;1.50;;;;;;;19.99;36.77;97016.53;2074481;28;20198;-65
2022/09/22 12:48:50;;;;;;;6.60;1.40;;;;;;;20.99;36.75;97021.94;2076770;28;20227;-64
2022/09/22 12:49:56;;;;;;;1.95;0.90;;;;;;;22.49;35.29;97021.91;2067610;28;20280;-63
2022/09/22 12:58:01;;;;;;;1.70;0.82;;;;;;;25.05;30.79;97015.38;2076798;28;20181;-64
2022/09/22 12:59:22;;;;;;;1.85;0.95;;;;;;;24.87;30.37;97010.81;2075152;28;20201;-63
2022/09/22 13:00:40;;;;;;;1.95;1.08;;;;;;;20.96;34.25;97024.84;2070321;28;20734;-64
2022/09/22 13:01:42;;;;;;;1.60;0.85;;;;;;;19.45;37.48;97017.94;2081293;28;20661;-64
2022/09/22 13:02:44;;;;;;;1.50;0.90;;;;;;;19.90;35.99;97012.78;2076187;28;20186;-64
2022/09/22 13:03:50;;;;;;;3.15;1.05;;;;;;;19.77;35.97;97010.22;2074187;28;20201;-63
2022/09/22 13:04:54;;;;;;;7.07;1.20;;;;;;;20.01;36.50;97007.50;2075159;28;20305;-63
2022/09/22 13:06:21;;;;;;;2.20;0.75;;;;;;;20.04;36.50;97007.25;2075316;28;20808;-63
2022/09/22 13:07:34;;;;;;;1.90;0.90;;;;;;;20.01;35.63;97010.16;2076056;28;20379;-64
2022/09/22 13:08:55;;;;;;;1.70;0.80;;;;;;;20.39;36.09;97008.09;2075045;28;20664;-64
2022/09/22 13:10:21;;;;;;;1.65;1.00;;;;;;;20.20;35.53;96998.09;2068703;28;20252;-63
2022/09/22 13:12:07;;;;;;;2.75;0.82;;;;;;;20.23;35.63;97004.00;2083992;28;20582;-63
2022/09/22 13:13:22;;;;;;;1.40;0.80;;;;;;;20.35;35.11;96999.56;2068989;28;20292;-64
2022/09/22 13:14:58;;;;;;;3.10;0.73;;;;;;;21.29;33.80;97007.13;2081299;28;20311;-64
2022/09/22 13:16:04;;;;;;;2.28;0.80;;;;;;;22.99;32.59;96997.97;2074484;28;20217;-65
2022/09/22 13:17:31;;;;;;;9.02;1.10;;;;;;;21.07;34.85;97001.91;2075111;28;20317;-64
2022/09/22 13:18:34;;;;;;;5.50;0.95;;;;;;;22.65;33.50;97000.97;2076815;28;20198;-64
2022/09/22 13:19:53;;;;;;;2.38;1.10;;;;;;;22.96;32.27;96984.91;2066510;28;20235;-63
2022/09/22 13:21:00;;;;;;;3.50;0.93;;;;;;;23.88;31.42;96997.97;2083401;28;20723;-65
2022/09/22 13:22:16;;;;;;;3.75;1.10;;;;;;;23.26;31.79;96993.81;2079916;28;20197;-65
2022/09/22 13:23:18;;;;;;;2.75;0.70;;;;;;;20.33;34.07;96993.53;2078368;28;20670;-67
2022/09/22 13:24:19;;;;;;;2.15;1.10;;;;;;;18.48;36.79;96991.41;2074930;28;20231;-66
2022/09/22 13:25:30;;;;;;;2.92;1.10;;;;;;;19.88;35.94;96996.16;2071430;28;20659;-66
2022/09/22 13:26:38;;;;;;;2.08;0.90;;;;;;;20.07;36.14;96992.91;2084079;28;20197;-65
2022/09/22 13:27:39;;;;;;;2.00;0.90;;;;;;;19.74;36.15;96989.22;2075383;28;20277;-65
2022/09/22 13:28:42;;;;;;;2.22;0.70;;;;;;;19.85;35.84;96991.09;2075514;28;20290;-66
2022/09/22 13:29:56;;;;;;;1.30;0.70;;;;;;;19.73;36.18;96974.28;2065919;28;20233;-65
2022/09/22 13:31:08;;;;;;;1.88;0.90;;;;;;;19.70;35.54;96982.50;2082680;28;20200;-66
2022/09/22 13:32:25;;;;;;;6.65;0.90;;;;;;;20.61;36.34;96990.47;2079227;28;20729;-65
2022/09/22 13:40:09;;;;;;;5.00;0.98;;;;;;;18.47;38.39;96987.91;2069162;28;20362;-65
2022/09/22 13:41:18;;;;;;;2.25;1.05;;;;;;;18.68;38.40;96992.63;2084218;28;20288;-66
2022/09/22 13:42:29;;;;;;;1.20;0.80;;;;;;;18.26;38.58;96974.44;2077436;28;20241;-66
2022/09/22 13:43:38;;;;;;;2.15;0.70;;;;;;;18.20;39.20;96988.06;2076221;28;20204;-65
2022/09/22 13:44:42;;;;;;;2.58;0.98;;;;;;;17.58;39.90;96986.97;2065630;28;20656;-66
2022/09/22 13:50:20;;;;;;;33.75;16.17;;;;;;;20.97;34.41;96976.09;2065420;28;20221;-66
2022/09/22 13:51:24;;;;;;;3.20;1.20;;;;;;;18.99;36.60;96964.78;2078784;28;20208;-67
2022/09/22 13:52:31;;;;;;;8.00;4.35;;;;;;;18.84;37.97;96971.19;2070814;28;20197;-65
2022/09/22 13:53:33;;;;;;;2.35;1.05;;;;;;;18.67;38.67;96970.59;2072170;28;20244;-66
2022/09/22 13:54:36;;;;;;;2.60;0.80;;;;;;;19.63;37.32;96968.00;2066031;28;20316;-66
2022/09/22 13:55:37;;;;;;;1.75;1.02;;;;;;;20.62;35.88;96936.47;2067662;28;20234;-66
2022/09/22 14:02:03;;;;;;;1.30;0.70;;;;;;;22.17;32.80;96962.53;2069353;28;20800;-66
2022/09/22 14:03:04;;;;;;;3.05;0.90;;;;;;;23.66;31.83;96949.31;2071269;28;20205;-66
2022/09/22 14:04:20;;;;;;;1.30;0.75;;;;;;;24.42;31.38;96968.91;2070758;28;20198;-66
2022/09/22 14:05:29;;;;;;;5.03;1.00;;;;;;;24.75;30.40;96967.47;2067201;28;20805;-66
2022/09/22 14:06:33;;;;;;;6.57;1.00;;;;;;;23.37;31.01;96963.50;2076538;28;20263;-66
2022/09/22 14:07:36;;;;;;;5.05;1.10;;;;;;;23.44;31.78;96966.47;2076516;28;20514;-66
2022/09/22 14:08:51;;;;;;;3.15;1.20;;;;;;;24.13;31.55;96962.69;2074799;28;20193;-66
2022/09/22 14:09:54;;;;;;;10.65;1.30;;;;;;;24.20;31.31;96944.28;2069133;28;20248;-66
2022/09/22 14:10:58;;;;;;;2.17;0.88;;;;;;;24.65;30.80;96963.22;2069338;28;20289;-66
2022/09/22 14:12:00;;;;;;;1.65;0.75;;;;;;;24.57;30.38;96950.53;2071159;28;20240;-67
2022/09/22 14:13:01;;;;;;;4.07;0.98;;;;;;;23.94;30.96;96954.75;2072056;28;20297;-66
2022/09/22 14:14:05;;;;;;;4.85;1.00;;;;;;;22.35;32.31;96968.06;2068959;28;20709;-66
2022/09/22 14:15:32;;;;;;;3.65;1.10;;;;;;;20.28;36.25;96963.91;2063451;28;20234;-68
2022/09/22 14:16:35;;;;;;;4.07;0.98;;;;;;;19.58;35.53;96966.56;2077423;28;20224;-66
2022/09/22 14:17:39;;;;;;;6.40;1.40;;;;;;;19.09;36.02;96957.84;2070107;28;20221;-67
2022/09/22 14:18:47;;;;;;;5.15;0.88;;;;;;;18.19;36.78;96960.78;2068049;28;20190;-65
2022/09/22 14:20:01;;;;;;;8.45;1.20;;;;;;;18.90;36.44;96961.03;2059750;28;20372;-66
2022/09/22 14:26:13;;;;;;;3.38;0.93;;;;;;;21.19;32.91;96961.03;2058935;28;20222;-66
2022/09/22 14:27:46;;;;;;;1.63;1.00;;;;;;;18.54;36.67;96959.25;2067992;28;20212;-65
2022/09/22 14:28:54;;;;;;;1.55;0.75;;;;;;;19.01;37.18;96935.59;2069266;28;20288;-65
2022/09/22 14:29:56;;;;;;;1.70;0.90;;;;;;;18.97;36.91;96957.94;2061526;28;20238;-64
2022/09/22 14:30:58;;;;;;;2.47;0.90;;;;;;;18.68;37.88;96950.31;2075961;28;20227;-65
2022/09/22 14:32:24;;;;;;;4.13;0.90;;;;;;;19.42;35.52;96955.44;2073032;28;20230;-65
2022/09/22 14:33:32;;;;;;;2.03;1.00;;;;;;;19.19;36.59;96943.97;2069390;28;20190;-65
2022/09/22 14:34:34;;;;;;;1.45;0.88;;;;;;;18.76;37.84;96942.66;2069830;28;20284;-65
2022/09/22 14:35:36;;;;;;;1.98;0.90;;;;;;;18.65;38.15;96945.22;2075091;28;20313;-65
2022/09/22 14:36:38;;;;;;;7.45;1.00;;;;;;;19.74;36.65;96947.72;2076773;28;20682;-66
2022/09/22 14:37:44;;;;;;;3.65;1.00;;;;;;;18.36;37.77;96954.31;2068622;28;20260;-65
2022/09/22 14:38:47;;;;;;;2.42;1.00;;;;;;;17.95;38.37;96934.28;2069613;28;20229;-66
2022/09/22 14:40:17;;;;;;;3.20;1.00;;;;;;;18.53;38.02;96925.81;2059560;28;20230;-66
2022/09/22 14:41:24;;;;;;;2.55;1.10;;;;;;;18.45;37.52;96910.50;2072047;28;20248;-66
2022/09/22 14:42:28;;;;;;;2.30;1.02;;;;;;;18.92;36.30;96937.94;2071129;28;20289;-66
2022/09/22 14:43:37;;;;;;;2.00;0.90;;;;;;;19.69;36.02;96941.91;2077141;28;20204;-66
2022/09/22 14:44:48;;;;;;;3.28;0.90;;;;;;;20.28;35.34;96926.78;2067284;28;20677;-66
2022/09/22 14:46:01;;;;;;;2.95;0.88;;;;;;;19.63;37.53;96936.22;2078221;28;20228;-66
2022/09/22 14:47:24;;;;;;;7.28;0.90;;;;;;;20.59;36.28;96942.03;2073199;28;20201;-66
2022/09/22 14:48:27;;;;;;;13.40;3.83;;;;;;;21.32;33.89;96937.00;2069420;28;20229;-66
2022/09/22 14:56:31;;;;;;;59.72;25.90;;;;;;;22.72;32.30;96932.06;2069309;28;20328;-66
2022/09/22 14:57:34;;;;;;;20.33;9.15;;;;;;;23.25;32.10;96938.00;2069145;28;20252;-67
2022/09/22 14:58:39;;;;;;;13.45;2.50;;;;;;;22.03;31.02;96936.31;2070148;28;20277;-66
2022/09/22 15:02:52;;;;;;;3.30;0.80;;;;;;;19.98;34.94;96927.41;2069574;28;20559;-66
2022/09/22 15:04:05;;;;;;;1.77;0.68;;;;;;;20.16;35.53;96931.25;2070325;28;20297;-65
2022/09/22 15:05:10;;;;;;;2.03;0.90;;;;;;;19.85;35.67;96933.66;2060608;28;20237;-67
2022/09/22 15:06:13;;;;;;;9.02;1.00;;;;;;;19.66;35.27;96905.06;2076671;28;20204;-67
2022/09/22 15:14:41;;;;;;;1.77;0.90;;;;;;;21.95;33.37;96901.56;2071353;28;20701;-68
2022/09/22 15:15:45;;;;;;;5.78;1.00;;;;;;;21.19;33.64;96922.06;2069890;28;20654;-67
2022/09/22 15:16:47;;;;;;;2.00;1.00;;;;;;;20.30;34.88;96921.34;2071312;28;20202;-68
2022/09/22 15:19:15;;;;;;;3.67;0.90;;;;;;;19.45;36.54;96894.31;2068711;28;20251;-68
2022/09/22 15:20:17;;;;;;;1.50;0.88;;;;;;;19.93;35.67;96917.13;2064459;28;20230;-67
2022/09/22 15:21:46;;;;;;;3.60;0.95;;;;;;;18.68;37.32;96918.56;2088575;28;20212;-64
2022/09/22 15:22:53;;;;;;;1.80;0.80;;;;;;;19.57;36.88;96919.84;2068938;28;20226;-67
2022/09/22 15:23:57;;;;;;;3.40;1.00;;;;;;;19.55;36.46;96924.44;2070238;28;20295;-67
2022/09/22 15:24:59;;;;;;;7.45;0.85;;;;;;;18.72;37.86;96898.88;2064266;28;20677;-67
2022/09/22 15:26:05;;;;;;;1.92;0.95;;;;;;;19.41;36.81;96912.25;2076959;28;20284;-67
2022/09/22 15:27:07;;;;;;;3.33;0.95;;;;;;;18.84;37.16;96887.38;2072709;28;20209;-66
2022/09/22 15:28:14;;;;;;;1.80;1.00;;;;;;;19.38;36.42;96917.75;2068899;28;20737;-68
2022/09/22 15:29:20;;;;;;;3.47;0.98;;;;;;;19.52;36.28;96908.78;2068789;28;20236;-66
2022/09/22 15:30:21;;;;;;;5.53;2.50;;;;;;;19.39;36.47;96902.75;2064437;28;20256;-67
2022/09/22 15:31:25;;;;;;;1.40;1.00;;;;;;;19.01;37.60;96912.59;2075883;28;20231;-67
2022/09/22 15:32:27;;;;;;;1.50;0.80;;;;;;;19.50;37.43;96912.50;2070042;28;20198;-67
2022/09/22 15:33:29;;;;;;;8.73;1.33;;;;;;;19.69;36.37;96906.63;2068490;28;20197;-66
2022/09/22 15:34:31;;;;;;;7.93;3.28;;;;;;;20.23;35.79;96890.00;2068220;28;20238;-68
2022/09/22 15:35:36;;;;;;;6.07;3.13;;;;;;;20.98;34.97;96906.13;2067864;28;20317;-67
2022/09/22 15:36:44;;;;;;;4.53;1.15;;;;;;;21.49;34.29;96896.53;2068168;28;20704;-67
2022/09/22 15:37:49;;;;;;;4.43;0.88;;;;;;;21.85;33.66;96907.69;2069486;28;20245;-68
2022/09/22 15:38:56;;;;;;;4.90;0.98;;;;;;;21.42;33.42;96895.41;2068920;28;20237;-67
2022/09/22 15:39:59;;;;;;;3.40;1.10;;;;;;;19.79;35.72;96886.41;2061222;28;20220;-67
2022/09/22 15:41:01;;;;;;;2.50;0.80;;;;;;;19.62;36.57;96914.22;2067827;28;20281;-67
2022/09/22 15:42:02;;;;;;;4.63;1.10;;;;;;;19.96;37.09;96898.38;2069307;28;20300;-67
2022/09/22 15:43:19;;;;;;;5.90;1.85;;;;;;;20.76;35.17;96907.06;2068345;28;20202;-66
2022/09/22 15:44:20;;;;;;;7.25;1.10;;;;;;;20.95;34.88;96909.03;2069827;28;20206;-66
2022/09/22 15:45:27;;;;;;;1.83;0.90;;;;;;;20.25;35.28;96911.09;2065676;28;20240;-67
2022/09/22 15:46:36;;;;;;;3.30;0.93;;;;;;;20.27;35.69;96906.53;2075676;28;20217;-66
2022/09/22 15:47:38;;;;;;;1.77;0.80;;;;;;;20.15;35.41;96904.84;2067010;28;20208;-65
2022/09/22 15:48:39;;;;;;;3.70;1.20;;;;;;;19.27;36.85;96898.38;2070733;28;20232;-66
2022/09/22 15:49:43;;;;;;;1.60;0.90;;;;;;;18.59;37.58;96901.56;2068566;28;20237;-70
2022/09/22 15:50:45;;;;;;;2.78;0.90;;;;;;;18.06;38.38;96897.38;2077769;28;20200;-68
2022/09/22 15:51:48;;;;;;;1.30;0.85;;;;;;;19.06;36.66;96889.28;2075512;28;20676;-67
2022/09/22 15:52:49;;;;;;;1.80;0.80;;;;;;;18.40;36.40;96896.78;2070425;28;20288;-67
2022/09/22 15:53:51;;;;;;;3.05;0.73;;;;;;;17.86;37.86;96868.88;2067160;28;20202;-67
2022/09/22 15:54:54;;;;;;;3.30;0.90;;;;;;;17.78;38.04;96894.03;2059966;28;20198;-67
2022/09/22 15:55:57;;;;;;;1.80;1.27;;;;;;;18.71;37.64;96895.38;2075299;28;20391;-66
2022/09/22 15:56:59;;;;;;;2.22;0.90;;;;;;;18.57;37.36;96895.53;2072833;28;20248;-66
2022/09/22 15:58:06;;;;;;;7.35;1.10;;;;;;;18.25;38.13;96896.91;2069281;28;20252;-67
2022/09/22 15:59:15;;;;;;;1.70;1.00;;;;;;;18.01;38.67;96886.31;2068805;28;20204;-66
2022/09/22 16:00:19;;;;;;;2.00;0.90;;;;;;;18.24;37.85;96894.38;2064576;28;20251;-66
2022/09/22 16:01:21;;;;;;;2.95;1.20;;;;;;;18.28;37.87;96893.22;2077787;28;20280;-66
2022/09/22 16:02:24;;;;;;;3.25;1.05;;;;;;;17.91;37.61;96883.44;2070848;28;20334;-66
2022/09/22 16:03:26;;;;;;;2.25;1.00;;;;;;;17.26;38.81;96894.97;2068518;28;20194;-66
2022/09/22 16:04:32;;;;;;;2.95;0.90;;;;;;;17.48;39.17;96893.50;2067058;28;20253;-66
2022/09/22 16:05:34;;;;;;;1.50;0.90;;;;;;;17.05;39.43;96877.03;2056821;28;20234;-66
2022/09/22 16:06:38;;;;;;;1.90;0.95;;;;;;;17.25;39.23;96890.66;2069076;28;20705;-67
2022/09/22 16:07:43;;;;;;;3.33;0.90;;;;;;;17.32;39.72;96886.66;2067713;28;20230;-67
2022/09/22 16:08:47;;;;;;;3.25;1.00;;;;;;;17.49;39.43;96874.09;2068919;28;20289;-67
2022/09/22 16:09:49;;;;;;;1.95;1.05;;;;;;;17.87;39.31;96889.06;2060403;28;20237;-66
2022/09/22 16:10:55;;;;;;;1.98;0.88;;;;;;;17.87;39.12;96889.06;2069998;28;20233;-67
2022/09/22 16:11:57;;;;;;;1.55;0.80;;;;;;;17.22;39.37;96881.16;2071372;28;20255;-67
2022/09/22 16:12:58;;;;;;;1.55;0.90;;;;;;;16.81;40.79;96882.06;2070292;28;20276;-67
2022/09/22 16:14:02;;;;;;;3.33;1.20;;;;;;;16.86;40.49;96879.16;2068061;28;20225;-66
2022/09/22 16:15:05;;;;;;;2.05;0.90;;;;;;;16.96;40.30;96888.16;2061433;28;20220;-66